createdAt,value
2023-05-03T00:01:07.218Z,5.1
2023-05-03T00:20:15.052Z,4.6
2023-05-03T00:39:25.956Z,4.4
2023-05-03T00:58:37.658Z,4.5
2023-05-03T01:17:45.636Z,4.8
2023-05-03T01:36:55.350Z,4.4
2023-05-03T01:56:07.400Z,3.6
2023-05-03T02:15:16.062Z,3.3
2023-05-03T02:34:27.846Z,3.7
2023-05-03T02:53:37.370Z,3.1
2023-05-03T03:12:49.398Z,3
2023-05-03T03:12:58.687Z,2.9
2023-05-03T03:32:03.552Z,3.3
2023-05-03T03:51:15.014Z,2.7
2023-05-03T04:10:24.491Z,3.2
2023-05-03T04:29:32.860Z,3.1
2023-05-03T04:48:44.312Z,3.2
2023-05-03T05:07:55.820Z,3.7
2023-05-03T05:27:07.407Z,3.8
2023-05-03T05:46:19.353Z,4.3
2023-05-03T06:05:32.877Z,4.7
2023-05-03T06:24:43.562Z,5.2
2023-05-03T06:43:58.216Z,5.9
2023-05-03T07:03:13.028Z,7.2
2023-05-03T07:22:27.442Z,7.9
2023-05-03T07:42:03.401Z,13.6
2023-05-03T08:01:24.116Z,15.2
2023-05-03T08:20:42.054Z,16.7
2023-05-03T08:39:53.057Z,16.5
2023-05-03T08:59:16.681Z,18.7
2023-05-03T09:18:24.020Z,17.4
2023-05-03T09:37:24.327Z,16.6
2023-05-03T09:56:34.139Z,16.4
2023-05-03T10:15:46.799Z,16.8
2023-05-03T10:34:54.258Z,16.7
2023-05-03T10:54:02.321Z,16.4
2023-05-03T11:13:21.178Z,17.8
2023-05-03T11:32:32.971Z,17.8
2023-05-03T11:51:45.830Z,17.2
2023-05-03T12:10:58.420Z,18.3
2023-05-03T12:30:09.972Z,17.3
2023-05-03T12:49:24.049Z,18
2023-05-03T13:08:43.838Z,18.5
2023-05-03T13:27:52.400Z,18.8
2023-05-03T13:47:04.772Z,19.1
2023-05-03T14:06:18.598Z,19.8
2023-05-03T14:25:31.408Z,19.7
2023-05-03T14:44:41.728Z,19.7
2023-05-03T15:03:53.445Z,19.2
2023-05-03T15:23:05.305Z,19.5
2023-05-03T15:42:15.887Z,19.3
2023-05-03T16:01:27.379Z,19.3
2023-05-03T16:20:35.099Z,19
2023-05-03T16:53:44.797Z,20
2023-05-03T16:56:42.709Z,20.2
2023-05-03T16:59:42.293Z,20.8
2023-05-03T17:20:17.596Z,20.7
2023-05-03T17:38:17.201Z,18.6
